Terminal Aerodrome Forecast
Issued by NWS

Current Version | Previous Version | Text Only | Print | Product List | Glossary On
Versions: 1 2 3 4 5 6 7 8 9 10 11 12 13 14 15 16 17 18 19 20 21 22
000
FTUS46 KLOX 220800 AAA
TAFSBP
TAF AMD
KSBP 220824Z 2208/2306 31007KT P6SM SKC
     FM222100 31015G20KT P6SM SKC
     FM230400 31008KT P6SM BKN010=

USA.gov is the U.S. government's official web portal to all federal, state and local government web resources and services.